createdAt,value
2022-12-11T00:01:49.148Z,24.60
2022-12-11T00:04:18.506Z,25.20
2022-12-11T00:06:50.814Z,24.80
2022-12-11T00:09:21.697Z,25.30
2022-12-11T00:11:50.697Z,27.20
2022-12-11T00:14:19.905Z,25.60
2022-12-11T00:16:50.194Z,25.20
2022-12-11T00:19:20.090Z,25.30
2022-12-11T00:21:49.636Z,25.10
2022-12-11T00:24:19.109Z,25.60
2022-12-11T00:26:48.655Z,25.30
2022-12-11T00:29:17.805Z,26.20
2022-12-11T00:31:46.791Z,25.50
2022-12-11T00:34:16.028Z,26.30
2022-12-11T00:36:45.150Z,26.10
2022-12-11T00:39:14.543Z,26.60
2022-12-11T00:41:43.800Z,24.40
2022-12-11T00:44:12.892Z,24.60
2022-12-11T00:46:42.155Z,25.00
2022-12-11T00:49:11.356Z,26.50
2022-12-11T00:51:41.157Z,27.00
2022-12-11T00:54:10.437Z,27.00
2022-12-11T00:56:40.102Z,27.70
2022-12-11T00:59:09.280Z,26.20
2022-12-11T01:01:39.493Z,27.00
2022-12-11T01:04:08.665Z,27.30
2022-12-11T01:06:37.652Z,26.90
2022-12-11T01:09:25.318Z,26.20
2022-12-11T01:11:54.183Z,27.20
2022-12-11T01:14:23.499Z,28.10
2022-12-11T01:16:52.704Z,28.00
2022-12-11T01:19:22.846Z,27.40
2022-12-11T01:21:55.163Z,27.50
2022-12-11T01:24:24.428Z,27.10
2022-12-11T01:26:53.426Z,28.30
2022-12-11T01:29:22.366Z,27.80
2022-12-11T01:31:53.756Z,28.60
2022-12-11T01:34:23.628Z,27.70
2022-12-11T01:36:53.219Z,27.20
2022-12-11T01:39:22.460Z,27.20
2022-12-11T01:42:01.956Z,28.50
2022-12-11T01:44:31.172Z,26.30
2022-12-11T01:47:00.411Z,27.70
2022-12-11T01:49:30.286Z,28.40
2022-12-11T01:52:21.856Z,28.40
2022-12-11T01:54:51.848Z,28.20
2022-12-11T01:57:20.871Z,28.80
2022-12-11T01:59:49.987Z,29.60
2022-12-11T02:02:28.321Z,27.90
2022-12-11T02:04:57.491Z,28.50
2022-12-11T02:07:26.678Z,28.70
2022-12-11T02:09:58.241Z,27.30
2022-12-11T02:12:52.759Z,28.90
2022-12-11T02:15:48.521Z,27.90
2022-12-11T02:18:37.339Z,29.20
2022-12-11T02:21:36.999Z,28.50
2022-12-11T02:24:41.521Z,27.40
2022-12-11T02:27:46.943Z,27.70
2022-12-11T02:30:17.386Z,26.90
2022-12-11T02:32:58.252Z,27.60
2022-12-11T02:35:35.524Z,26.20
2022-12-11T02:38:11.434Z,27.50
2022-12-11T02:40:43.007Z,26.20
2022-12-11T02:43:16.299Z,26.60
2022-12-11T02:45:46.723Z,24.80
2022-12-11T02:48:19.942Z,26.30
2022-12-11T03:04:36.811Z,25.90
2022-12-11T03:07:17.314Z,27.10
2022-12-11T03:09:48.188Z,25.30
2022-12-11T03:12:34.289Z,25.90
2022-12-11T03:15:09.728Z,25.80
2022-12-11T03:18:09.703Z,25.30
2022-12-11T03:20:44.805Z,24.80
2022-12-11T03:23:23.865Z,24.20
2022-12-11T03:26:02.546Z,25.50
2022-12-11T03:28:41.047Z,24.40
2022-12-11T03:31:16.760Z,26.40
2022-12-11T03:33:48.345Z,24.50
2022-12-11T03:36:25.566Z,23.90
2022-12-11T03:39:01.951Z,24.40
2022-12-11T03:41:39.298Z,23.90
2022-12-11T03:44:07.767Z,23.20
2022-12-11T03:46:39.054Z,24.30
2022-12-11T03:49:15.149Z,23.80
2022-12-11T03:51:44.746Z,23.10
2022-12-11T03:54:19.306Z,25.70
2022-12-11T03:56:48.534Z,24.80
2022-12-11T03:59:18.053Z,25.80
2022-12-11T04:01:48.560Z,24.30
2022-12-11T04:04:16.896Z,27.00
2022-12-11T04:06:48.592Z,28.20
2022-12-11T04:09:18.948Z,27.90
2022-12-11T04:11:46.613Z,27.00
2022-12-11T04:14:33.175Z,25.20
2022-12-11T04:17:01.837Z,26.70
2022-12-11T04:19:48.811Z,24.80
2022-12-11T04:22:36.691Z,26.10
2022-12-11T04:25:07.698Z,24.90
2022-12-11T04:27:51.236Z,25.50
2022-12-11T04:30:28.045Z,26.70
2022-12-11T04:32:58.474Z,24.40
2022-12-11T04:35:54.198Z,30.50
2022-12-11T04:38:23.279Z,28.70
2022-12-11T04:41:10.596Z,28.60
2022-12-11T04:43:40.313Z,27.40
2022-12-11T04:46:31.885Z,26.00
2022-12-11T04:51:30.291Z,25.10
2022-12-11T04:53:59.878Z,24.60
2022-12-11T04:56:31.920Z,25.70
2022-12-11T04:59:02.162Z,26.80
2022-12-11T05:01:31.735Z,24.60
2022-12-11T05:04:02.878Z,27.60
2022-12-11T05:06:32.045Z,29.70
2022-12-11T05:09:02.035Z,29.90
2022-12-11T05:11:37.221Z,31.30
2022-12-11T05:14:06.581Z,30.10
2022-12-11T05:16:35.762Z,27.80
2022-12-11T05:19:04.807Z,28.50
2022-12-11T05:21:35.333Z,28.70
2022-12-11T05:24:06.203Z,28.60
2022-12-11T05:26:36.808Z,32.90
2022-12-11T05:29:06.790Z,40.80
2022-12-11T05:31:36.236Z,45.10
2022-12-11T05:34:05.833Z,46.00
2022-12-11T05:36:35.097Z,48.70
2022-12-11T05:39:08.410Z,47.00
2022-12-11T05:41:38.312Z,47.80
2022-12-11T05:44:08.122Z,59.90
2022-12-11T05:46:37.355Z,64.20
2022-12-11T05:49:07.417Z,66.30
2022-12-11T05:51:49.888Z,67.00
2022-12-11T05:54:19.975Z,64.70
2022-12-11T05:56:51.593Z,67.90
2022-12-11T06:02:40.768Z,70.10
2022-12-11T06:05:11.027Z,70.20
2022-12-11T06:07:40.928Z,68.40
2022-12-11T06:10:10.931Z,76.70
2022-12-11T06:12:41.288Z,78.30
2022-12-11T06:15:11.370Z,80.80
2022-12-11T06:17:41.080Z,86.10
2022-12-11T06:22:43.448Z,84.10
2022-12-11T06:25:13.669Z,88.90
2022-12-11T06:27:43.520Z,91.40
2022-12-11T06:30:13.680Z,96.50
2022-12-11T06:32:44.249Z,92.90
2022-12-11T06:35:19.373Z,88.10
2022-12-11T06:37:48.264Z,83.80
2022-12-11T06:40:20.976Z,82.00
2022-12-11T06:42:50.511Z,81.90
2022-12-11T06:45:20.291Z,77.40
2022-12-11T06:47:50.270Z,77.10
2022-12-11T06:50:21.849Z,68.00
2022-12-11T06:52:51.131Z,59.00
2022-12-11T06:55:21.105Z,55.70
2022-12-11T06:57:50.361Z,52.10
2022-12-11T07:00:20.048Z,51.30
2022-12-11T07:02:51.614Z,45.00
2022-12-11T07:05:21.247Z,45.60
2022-12-11T07:07:50.716Z,45.00
2022-12-11T07:10:20.063Z,42.10
2022-12-11T07:12:52.029Z,41.50
2022-12-11T07:15:22.411Z,41.90
2022-12-11T07:17:51.741Z,39.00
2022-12-11T07:20:21.056Z,38.50
2022-12-11T07:22:50.957Z,38.30
2022-12-11T07:25:20.670Z,39.50
2022-12-11T07:27:50.150Z,40.20
2022-12-11T07:30:19.929Z,40.10
2022-12-11T07:32:49.385Z,42.20
2022-12-11T07:35:19.206Z,45.40
2022-12-11T07:37:48.651Z,40.80
2022-12-11T07:40:19.978Z,39.70
2022-12-11T07:42:51.617Z,41.30
2022-12-11T07:45:23.581Z,41.70
2022-12-11T07:47:53.496Z,42.20
2022-12-11T07:50:23.201Z,42.20
2022-12-11T07:52:53.040Z,44.50
2022-12-11T07:55:22.760Z,42.40
2022-12-11T07:57:53.584Z,43.40
2022-12-11T08:00:22.645Z,44.70
2022-12-11T08:02:51.987Z,43.60
2022-12-11T08:05:21.323Z,44.20
2022-12-11T08:07:50.727Z,43.40
2022-12-11T08:10:25.140Z,43.30
2022-12-11T08:12:57.386Z,42.90
2022-12-11T08:15:26.673Z,45.70
2022-12-11T08:18:02.253Z,47.60
2022-12-11T08:20:31.699Z,46.50
2022-12-11T08:23:03.606Z,48.20
2022-12-11T08:25:33.856Z,46.90
2022-12-11T08:28:07.114Z,45.80
2022-12-11T08:30:39.571Z,47.40
2022-12-11T08:33:08.957Z,45.40
2022-12-11T08:35:50.204Z,46.30
2022-12-11T08:38:24.994Z,47.70
2022-12-11T08:40:54.712Z,47.40
2022-12-11T08:43:24.165Z,46.00
2022-12-11T08:45:54.724Z,50.00
2022-12-11T08:48:24.204Z,52.40
2022-12-11T08:50:53.292Z,54.20
2022-12-11T08:53:22.910Z,51.60
2022-12-11T08:55:52.401Z,50.80
2022-12-11T08:58:21.600Z,50.40
2022-12-11T09:00:50.383Z,47.40
2022-12-11T09:03:20.646Z,51.20
2022-12-11T09:05:49.743Z,50.50
2022-12-11T09:08:18.896Z,54.40
2022-12-11T09:10:47.917Z,50.40
2022-12-11T09:13:17.057Z,51.60
2022-12-11T09:15:50.275Z,50.50
2022-12-11T09:18:19.252Z,53.40
2022-12-11T09:20:48.280Z,52.70
2022-12-11T09:23:18.010Z,49.60
2022-12-11T09:25:47.293Z,56.40
2022-12-11T09:28:16.822Z,54.80
2022-12-11T09:30:49.041Z,58.10
2022-12-11T09:33:21.614Z,57.00
2022-12-11T09:36:01.232Z,62.30
2022-12-11T09:38:30.941Z,64.20
2022-12-11T09:41:01.345Z,67.60
2022-12-11T09:43:48.857Z,70.80
2022-12-11T09:46:20.030Z,67.30
2022-12-11T09:48:53.935Z,74.50
2022-12-11T09:51:49.623Z,65.40
2022-12-11T09:54:18.712Z,60.80
2022-12-11T09:57:19.359Z,57.90
2022-12-11T10:00:04.773Z,68.80
2022-12-11T10:03:13.455Z,70.80
2022-12-11T10:06:04.820Z,68.90
2022-12-11T10:09:11.350Z,69.80
2022-12-11T10:11:55.878Z,72.00
2022-12-11T10:14:50.946Z,73.10
2022-12-11T10:17:34.727Z,70.80
2022-12-11T10:20:25.856Z,70.00
2022-12-11T10:22:57.345Z,67.00
2022-12-11T10:28:38.902Z,65.40
2022-12-11T10:31:43.650Z,65.80
2022-12-11T10:34:42.215Z,71.00
2022-12-11T10:37:12.123Z,67.20
2022-12-11T10:39:43.499Z,67.30
2022-12-11T10:42:21.382Z,65.70
2022-12-11T10:45:02.977Z,61.50
2022-12-11T10:47:34.550Z,60.80
2022-12-11T10:50:05.216Z,60.30
2022-12-11T10:52:45.234Z,62.90
2022-12-11T10:55:46.477Z,56.10
2022-12-11T11:01:27.333Z,58.30
2022-12-11T11:04:20.642Z,59.90
2022-12-11T11:07:04.374Z,56.10
2022-12-11T11:09:37.277Z,60.40
2022-12-11T11:12:27.099Z,58.20
2022-12-11T11:15:07.257Z,57.80
2022-12-11T11:17:55.872Z,61.70
2022-12-11T11:20:32.548Z,56.50
2022-12-11T11:23:10.229Z,51.40
2022-12-11T11:25:57.531Z,55.40
2022-12-11T11:28:57.352Z,50.80
2022-12-11T11:31:36.560Z,49.50
2022-12-11T11:34:15.715Z,49.90
2022-12-11T11:36:57.848Z,53.90
2022-12-11T11:39:38.156Z,52.10
2022-12-11T11:42:29.504Z,50.70
2022-12-11T11:45:17.212Z,50.20
2022-12-11T11:48:26.731Z,52.50
2022-12-11T11:50:58.439Z,51.30
2022-12-11T11:53:39.737Z,53.70
2022-12-11T11:56:24.589Z,47.70
2022-12-11T11:59:14.974Z,53.90
2022-12-11T12:01:47.636Z,51.70
2022-12-11T12:04:17.139Z,53.60
2022-12-11T12:07:11.520Z,54.50
2022-12-11T12:10:00.194Z,49.30
2022-12-11T12:12:58.160Z,52.30
2022-12-11T12:15:34.596Z,53.00
2022-12-11T12:18:41.610Z,50.80
2022-12-11T12:21:37.806Z,52.80
2022-12-11T12:24:23.313Z,50.80
2022-12-11T12:27:51.555Z,54.40
2022-12-11T12:30:22.489Z,49.90
2022-12-11T12:33:30.073Z,49.90
2022-12-11T12:36:18.879Z,48.30
2022-12-11T12:38:59.325Z,51.80
2022-12-11T12:42:07.024Z,47.30
2022-12-11T12:45:11.080Z,1.20
2022-12-11T12:47:42.813Z,0.10
2022-12-11T12:50:23.942Z,0.60
2022-12-11T12:52:58.784Z,1.30
2022-12-11T12:55:33.497Z,0.50
2022-12-11T13:01:28.186Z,0.40
2022-12-11T13:04:02.589Z,0.20
2022-12-11T13:06:45.300Z,1.20
2022-12-11T13:09:17.724Z,0.40
2022-12-11T13:11:53.765Z,0.80
2022-12-11T13:14:37.427Z,0.20
2022-12-11T13:17:28.603Z,1.40
2022-12-11T13:20:33.165Z,0.30
2022-12-11T13:23:20.916Z,0.90
2022-12-11T13:26:09.252Z,0.20
2022-12-11T13:28:43.676Z,1.00
2022-12-11T13:31:17.971Z,0.00
2022-12-11T13:34:01.345Z,0.80
2022-12-11T13:36:44.179Z,0.40
2022-12-11T13:39:47.585Z,0.10
2022-12-11T13:42:35.957Z,0.20
2022-12-11T13:45:28.621Z,0.10
2022-12-11T13:48:00.161Z,0.90
2022-12-11T13:50:36.643Z,0.20
2022-12-11T13:53:08.800Z,0.30
2022-12-11T13:55:38.885Z,0.50
2022-12-11T14:01:54.653Z,1.20
2022-12-11T14:04:25.630Z,0.80
2022-12-11T14:06:58.103Z,0.10
2022-12-11T14:09:28.598Z,0.60
2022-12-11T14:12:27.175Z,1.00
2022-12-11T14:15:03.320Z,0.40
2022-12-11T14:17:35.685Z,1.40
2022-12-11T14:20:10.748Z,1.30
2022-12-11T14:22:40.561Z,1.60
2022-12-11T14:25:27.254Z,0.10
2022-12-11T14:27:57.451Z,0.30
2022-12-11T14:30:30.668Z,0.60
2022-12-11T14:33:04.723Z,0.70
2022-12-11T14:35:40.838Z,0.00
2022-12-11T14:38:44.745Z,0.30
2022-12-11T14:41:31.821Z,2.40
2022-12-11T14:44:07.941Z,2.80
2022-12-11T14:46:44.514Z,0.30
2022-12-11T14:49:42.375Z,0.20
2022-12-11T14:52:23.997Z,0.90
2022-12-11T14:57:34.845Z,0.30
2022-12-11T15:00:09.814Z,1.10
2022-12-11T15:02:39.876Z,0.60
2022-12-11T15:05:20.769Z,1.30
2022-12-11T15:08:02.793Z,0.20
2022-12-11T15:10:41.471Z,1.00
2022-12-11T15:13:10.827Z,0.00
2022-12-11T15:15:47.800Z,0.10
2022-12-11T15:18:26.114Z,0.10
2022-12-11T15:21:03.968Z,0.70
2022-12-11T15:24:00.678Z,1.10
2022-12-11T15:26:48.833Z,1.30
2022-12-11T15:29:31.131Z,1.50
2022-12-11T15:32:26.273Z,1.30
2022-12-11T15:35:01.469Z,0.20
2022-12-11T15:37:38.821Z,0.10
2022-12-11T15:40:09.743Z,1.90
2022-12-11T15:42:42.608Z,0.20
2022-12-11T15:45:20.520Z,1.70
2022-12-11T15:47:52.665Z,1.90
2022-12-11T15:50:36.640Z,0.10
2022-12-11T15:53:08.111Z,1.40
2022-12-11T15:55:38.173Z,0.70
2022-12-11T15:58:23.298Z,0.20
2022-12-11T16:00:56.069Z,0.10
2022-12-11T16:03:25.278Z,0.60
2022-12-11T16:05:54.407Z,0.40
2022-12-11T16:08:24.839Z,0.50
2022-12-11T16:10:55.808Z,0.30
2022-12-11T16:13:25.307Z,0.30
2022-12-11T16:15:55.622Z,0.40
2022-12-11T16:18:26.233Z,0.10
2022-12-11T16:20:55.127Z,2.50
2022-12-11T16:23:29.722Z,0.40
2022-12-11T16:26:06.634Z,0.90
2022-12-11T16:28:35.779Z,0.50
2022-12-11T16:31:10.958Z,0.40
2022-12-11T16:33:40.598Z,0.20
2022-12-11T16:36:22.109Z,0.20
2022-12-11T16:38:53.805Z,0.50
2022-12-11T16:41:24.305Z,0.30
2022-12-11T16:43:54.742Z,0.30
2022-12-11T16:46:24.727Z,0.80
2022-12-11T16:48:54.928Z,0.40
2022-12-11T16:51:24.851Z,0.60
2022-12-11T16:53:54.871Z,0.10
2022-12-11T16:56:27.293Z,0.40
2022-12-11T16:58:57.452Z,0.80
2022-12-11T17:01:28.499Z,0.10
2022-12-11T17:03:59.347Z,1.90
2022-12-11T17:06:28.722Z,0.30
2022-12-11T17:08:58.257Z,0.10
2022-12-11T17:11:27.336Z,0.10
2022-12-11T17:13:59.483Z,0.40
2022-12-11T17:16:35.672Z,0.30
2022-12-11T17:19:07.533Z,0.10
2022-12-11T17:21:36.449Z,0.10
2022-12-11T17:24:06.451Z,0.20
2022-12-11T17:26:37.438Z,0.30
2022-12-11T17:29:06.408Z,0.00
2022-12-11T17:31:35.441Z,0.30
2022-12-11T17:34:05.200Z,0.10
2022-12-11T17:36:35.377Z,0.00
2022-12-11T17:39:06.092Z,0.00
2022-12-11T17:41:37.538Z,0.00
2022-12-11T17:44:06.672Z,0.00
2022-12-11T17:46:36.637Z,0.30
2022-12-11T17:49:07.018Z,0.80
2022-12-11T17:51:36.520Z,0.00
2022-12-11T17:54:05.834Z,0.60
2022-12-11T17:56:36.364Z,0.10
2022-12-11T17:59:06.638Z,0.10
2022-12-11T18:01:38.272Z,0.00
2022-12-11T18:04:08.166Z,2.40
2022-12-11T18:06:37.831Z,0.00
2022-12-11T18:09:07.142Z,0.30
2022-12-11T18:11:38.807Z,0.10
2022-12-11T18:14:10.053Z,24.20
2022-12-11T18:16:45.758Z,25.10
2022-12-11T18:19:15.894Z,25.10
2022-12-11T18:21:46.304Z,26.30
2022-12-11T18:24:15.595Z,26.60
2022-12-11T18:26:45.571Z,26.30
2022-12-11T18:29:15.299Z,27.70
2022-12-11T18:31:44.615Z,26.20
2022-12-11T18:34:13.688Z,27.70
2022-12-11T18:36:42.485Z,26.50
2022-12-11T18:39:11.926Z,28.00
2022-12-11T18:41:45.636Z,27.80
2022-12-11T18:44:28.959Z,26.10
2022-12-11T18:46:58.433Z,27.30
2022-12-11T18:49:29.610Z,27.50
2022-12-11T18:51:59.106Z,32.60
2022-12-11T18:54:28.550Z,26.90
2022-12-11T18:56:57.820Z,29.70
2022-12-11T18:59:28.247Z,29.50
2022-12-11T19:01:59.131Z,20.10
2022-12-11T19:04:30.188Z,27.50
2022-12-11T19:07:01.177Z,28.10
2022-12-11T19:09:37.776Z,30.00
2022-12-11T19:12:08.421Z,28.60
2022-12-11T19:14:37.759Z,25.10
2022-12-11T19:17:06.857Z,27.00
2022-12-11T19:19:37.046Z,26.70
2022-12-11T19:22:07.947Z,26.30
2022-12-11T19:24:37.485Z,25.30
2022-12-11T19:27:13.300Z,26.50
2022-12-11T19:29:42.695Z,26.00
2022-12-11T19:32:14.447Z,28.60
2022-12-11T19:34:44.038Z,29.00
2022-12-11T19:37:15.876Z,27.70
2022-12-11T19:39:55.857Z,29.40
2022-12-11T19:42:27.062Z,29.10
2022-12-11T19:44:56.059Z,27.30
2022-12-11T19:47:25.041Z,30.10
2022-12-11T19:49:53.999Z,29.00
2022-12-11T19:52:23.265Z,28.00
2022-12-11T19:54:52.152Z,30.70
2022-12-11T19:57:20.979Z,29.40
2022-12-11T19:59:55.392Z,30.40
2022-12-11T20:02:45.320Z,30.30
2022-12-11T20:05:14.669Z,32.80
2022-12-11T20:07:47.101Z,30.60
2022-12-11T20:10:15.934Z,30.90
2022-12-11T20:12:44.758Z,28.00
2022-12-11T20:15:21.507Z,30.20
2022-12-11T20:17:58.372Z,29.50
2022-12-11T20:20:29.448Z,29.80
2022-12-11T20:23:03.080Z,29.70
2022-12-11T20:25:34.405Z,28.80
2022-12-11T20:30:34.891Z,27.30
2022-12-11T20:33:04.265Z,25.90
2022-12-11T20:35:33.561Z,26.90
2022-12-11T20:38:03.308Z,28.10
2022-12-11T20:40:33.318Z,28.30
2022-12-11T20:43:02.731Z,26.80
2022-12-11T20:45:32.273Z,26.80
2022-12-11T20:48:04.203Z,27.00
2022-12-11T20:50:33.463Z,26.90
2022-12-11T20:53:02.152Z,24.50
2022-12-11T20:55:31.145Z,21.70
2022-12-11T20:58:00.405Z,22.40
2022-12-11T21:03:56.124Z,20.60
2022-12-11T21:06:30.731Z,20.00
2022-12-11T21:09:00.812Z,19.00
2022-12-11T21:11:28.798Z,19.10
2022-12-11T21:13:56.744Z,20.70
2022-12-11T21:21:40.193Z,17.60
2022-12-11T21:24:20.316Z,20.30
2022-12-11T21:26:51.790Z,19.40
2022-12-11T21:29:21.010Z,19.70
2022-12-11T21:31:51.576Z,19.40
2022-12-11T21:34:28.501Z,19.40
2022-12-11T21:36:57.535Z,18.90
2022-12-11T21:39:36.054Z,19.90
2022-12-11T21:42:08.349Z,19.10
2022-12-11T21:47:28.013Z,18.50
2022-12-11T21:49:56.665Z,20.10
2022-12-11T21:52:25.517Z,20.70
2022-12-11T21:54:54.514Z,21.20
2022-12-11T21:57:26.501Z,20.30
2022-12-11T21:59:57.137Z,21.30
2022-12-11T22:02:25.810Z,21.00
2022-12-11T22:04:54.774Z,24.40
2022-12-11T22:07:23.998Z,24.80
2022-12-11T22:09:53.075Z,24.70
2022-12-11T22:12:26.546Z,25.10
2022-12-11T22:14:55.331Z,23.50
2022-12-11T22:17:24.827Z,25.40
2022-12-11T22:19:53.820Z,25.50
2022-12-11T22:22:22.887Z,23.40
2022-12-11T22:24:52.125Z,23.00
2022-12-11T22:27:23.898Z,23.70
2022-12-11T22:29:56.360Z,25.70
2022-12-11T22:32:27.838Z,23.00
2022-12-11T22:34:58.714Z,24.20
2022-12-11T22:37:29.481Z,25.10
2022-12-11T22:39:59.046Z,25.10
2022-12-11T22:42:28.548Z,26.20
2022-12-11T22:44:57.992Z,26.10
2022-12-11T22:47:27.437Z,26.50
2022-12-11T22:49:56.661Z,26.50
2022-12-11T22:52:26.854Z,26.60
2022-12-11T22:54:56.126Z,23.80
2022-12-11T22:57:25.557Z,26.70
2022-12-11T22:59:54.658Z,24.50
2022-12-11T23:02:24.915Z,26.20
2022-12-11T23:04:56.274Z,26.80
2022-12-11T23:07:26.448Z,26.80
2022-12-11T23:09:55.650Z,26.10
2022-12-11T23:12:25.044Z,24.20
2022-12-11T23:14:53.989Z,25.90
2022-12-11T23:17:23.018Z,26.70
2022-12-11T23:19:52.027Z,21.50
2022-12-11T23:22:24.337Z,26.90
2022-12-11T23:24:55.914Z,26.20
2022-12-11T23:29:55.733Z,26.00
2022-12-11T23:32:24.988Z,25.90
2022-12-11T23:34:54.180Z,24.00
2022-12-11T23:37:23.111Z,26.20
2022-12-11T23:39:53.652Z,24.90
2022-12-11T23:42:31.596Z,25.10
2022-12-11T23:45:02.998Z,22.90
2022-12-11T23:47:37.930Z,23.40
2022-12-11T23:50:08.517Z,24.60
2022-12-11T23:52:42.692Z,24.30
2022-12-11T23:55:19.255Z,22.90
2022-12-11T23:57:53.821Z,22.40
